createdAt,value
2023-10-20T00:00:23.978Z,14.75
2023-10-20T00:03:12.490Z,10.85
2023-10-20T00:06:35.510Z,8.95
2023-10-20T00:09:25.311Z,8.55
2023-10-20T00:12:16.949Z,11.05
2023-10-20T00:15:04.412Z,6.53
2023-10-20T00:18:07.224Z,11.02
2023-10-20T00:20:58.299Z,14.32
2023-10-20T00:23:44.753Z,10.27
2023-10-20T00:26:34.171Z,9.95
2023-10-20T00:29:22.977Z,10.30
2023-10-20T00:32:09.081Z,17.67
2023-10-20T00:34:54.985Z,8.77
2023-10-20T00:37:40.808Z,9.38
2023-10-20T00:40:52.825Z,12.48
2023-10-20T00:43:39.705Z,9.77
2023-10-20T00:46:25.570Z,10.00
2023-10-20T00:49:15.888Z,10.02
2023-10-20T00:52:08.704Z,8.48
2023-10-20T00:54:55.552Z,9.55
2023-10-20T00:57:45.772Z,8.73
2023-10-20T01:00:31.603Z,8.95
2023-10-20T01:03:19.750Z,9.90
2023-10-20T01:06:13.442Z,10.63
2023-10-20T01:09:04.302Z,7.97
2023-10-20T01:11:52.831Z,9.38
2023-10-20T01:14:44.182Z,10.80
2023-10-20T01:20:21.087Z,9.15
2023-10-20T01:23:06.723Z,8.63
2023-10-20T01:25:55.348Z,8.13
2023-10-20T01:28:41.455Z,8.05
2023-10-20T01:31:27.349Z,8.65
2023-10-20T01:34:15.187Z,7.65
2023-10-20T01:37:04.755Z,7.03
2023-10-20T01:39:51.431Z,6.35
2023-10-20T01:42:37.744Z,7.20
2023-10-20T01:45:28.944Z,7.45
2023-10-20T01:48:20.245Z,7.57
2023-10-20T01:51:14.125Z,6.75
2023-10-20T01:54:01.510Z,5.15
2023-10-20T01:56:50.710Z,5.70
2023-10-20T01:59:42.089Z,5.78
2023-10-20T02:02:31.332Z,5.72
2023-10-20T02:05:23.925Z,6.32
2023-10-20T02:08:12.201Z,5.28
2023-10-20T02:11:05.429Z,4.25
2023-10-20T02:13:58.578Z,4.88
2023-10-20T02:16:47.307Z,3.80
2023-10-20T02:19:37.853Z,5.07
2023-10-20T02:22:28.763Z,3.40
2023-10-20T02:25:19.334Z,3.22
2023-10-20T02:31:21.226Z,4.10
2023-10-20T02:34:07.891Z,3.42
2023-10-20T02:36:53.625Z,3.55
2023-10-20T02:39:42.177Z,4.55
2023-10-20T02:42:27.596Z,4.30
2023-10-20T02:45:17.251Z,3.47
2023-10-20T02:48:05.061Z,2.03
2023-10-20T02:50:52.716Z,3.92
2023-10-20T02:53:41.488Z,6.50
2023-10-20T02:56:27.205Z,4.55
2023-10-20T02:59:14.125Z,3.40
2023-10-20T03:02:02.204Z,2.92
2023-10-20T03:04:58.850Z,2.53
2023-10-20T03:07:52.572Z,2.38
2023-10-20T03:10:42.816Z,3.10
2023-10-20T03:13:32.237Z,2.38
2023-10-20T03:16:18.011Z,2.95
2023-10-20T03:19:05.303Z,2.78
2023-10-20T03:21:51.475Z,3.05
2023-10-20T03:24:47.974Z,2.47
2023-10-20T03:27:35.811Z,1.75
2023-10-20T03:30:23.316Z,1.95
2023-10-20T03:33:15.439Z,2.60
2023-10-20T03:36:11.379Z,3.85
2023-10-20T03:38:59.008Z,4.28
2023-10-20T03:41:47.046Z,3.45
2023-10-20T03:44:34.879Z,3.90
2023-10-20T03:47:26.788Z,1.67
2023-10-20T03:50:20.941Z,1.73
2023-10-20T03:53:08.221Z,2.65
2023-10-20T03:56:09.734Z,3.70
2023-10-20T03:58:55.629Z,3.00
2023-10-20T04:01:41.694Z,5.00
2023-10-20T04:04:28.221Z,2.95
2023-10-20T04:07:14.209Z,3.47
2023-10-20T04:10:00.407Z,3.30
2023-10-20T04:12:49.848Z,3.67
2023-10-20T04:15:37.743Z,2.65
2023-10-20T04:18:23.800Z,3.50
2023-10-20T04:21:13.197Z,2.60
2023-10-20T04:23:59.068Z,4.30
2023-10-20T04:26:44.755Z,6.30
2023-10-20T04:29:37.308Z,4.93
2023-10-20T04:32:42.000Z,4.25
2023-10-20T04:35:46.847Z,3.28
2023-10-20T04:38:54.882Z,6.63
2023-10-20T04:41:59.745Z,6.53
2023-10-20T04:45:14.780Z,4.93
2023-10-20T04:48:25.680Z,6.05
2023-10-20T04:51:11.054Z,10.60
2023-10-20T04:54:01.490Z,5.18
2023-10-20T04:57:05.919Z,5.80
2023-10-20T05:00:14.599Z,3.78
2023-10-20T05:03:00.651Z,4.45
2023-10-20T05:05:59.534Z,4.28
2023-10-20T05:08:45.192Z,3.53
2023-10-20T05:11:31.848Z,5.20
2023-10-20T05:14:18.835Z,6.03
2023-10-20T05:17:06.233Z,4.10
2023-10-20T05:19:54.985Z,2.90
2023-10-20T05:22:43.957Z,5.00
2023-10-20T05:25:29.634Z,4.63
2023-10-20T05:28:19.729Z,7.85
2023-10-20T05:31:10.325Z,4.40
2023-10-20T05:33:55.913Z,6.05
2023-10-20T05:36:43.792Z,6.85
2023-10-20T05:39:29.771Z,4.57
2023-10-20T05:42:15.312Z,3.45
2023-10-20T05:45:04.903Z,3.75
2023-10-20T05:47:51.544Z,3.28
2023-10-20T05:50:40.010Z,3.30
2023-10-20T05:53:27.144Z,4.13
2023-10-20T05:56:13.137Z,3.60
2023-10-20T05:59:04.084Z,3.78
2023-10-20T06:01:49.659Z,5.35
2023-10-20T06:04:36.718Z,4.20
2023-10-20T06:07:24.523Z,4.00
2023-10-20T06:10:13.064Z,6.32
2023-10-20T06:12:58.955Z,2.20
2023-10-20T06:15:47.482Z,7.88
2023-10-20T06:18:36.404Z,3.22
2023-10-20T06:21:22.851Z,4.03
2023-10-20T06:24:12.569Z,2.85
2023-10-20T06:27:04.000Z,3.83
2023-10-20T06:29:57.021Z,5.78
2023-10-20T06:32:45.212Z,6.45
2023-10-20T06:35:34.428Z,9.90
2023-10-20T06:38:33.682Z,10.32
2023-10-20T06:41:19.773Z,11.38
2023-10-20T06:44:06.054Z,12.45
2023-10-20T06:46:52.411Z,9.05
2023-10-20T06:49:38.027Z,4.60
2023-10-20T06:52:23.609Z,4.10
2023-10-20T06:55:40.624Z,4.60
2023-10-20T06:58:19.878Z,4.45
2023-10-20T07:01:09.530Z,2.30
2023-10-20T07:03:55.436Z,4.72
2023-10-20T07:06:41.601Z,3.30
2023-10-20T07:09:27.883Z,5.38
2023-10-20T07:12:16.167Z,4.07
2023-10-20T07:15:01.738Z,3.63
2023-10-20T07:17:47.378Z,3.65
2023-10-20T07:20:34.548Z,1.40
2023-10-20T07:23:20.712Z,3.47
2023-10-20T07:26:06.848Z,4.10
2023-10-20T07:28:52.662Z,6.05
2023-10-20T07:31:40.824Z,4.22
2023-10-20T07:34:26.653Z,2.65
2023-10-20T07:37:12.447Z,1.27
2023-10-20T07:39:58.028Z,2.58
2023-10-20T07:42:47.755Z,3.70
2023-10-20T07:45:44.517Z,7.65
2023-10-20T07:48:33.721Z,1.75
2023-10-20T07:51:20.892Z,3.22
2023-10-20T07:54:07.577Z,2.40
2023-10-20T07:56:53.063Z,4.22
2023-10-20T07:59:38.834Z,2.15
2023-10-20T08:02:25.182Z,3.95
2023-10-20T08:05:12.573Z,2.83
2023-10-20T08:08:02.787Z,1.27
2023-10-20T08:10:50.554Z,2.85
2023-10-20T08:13:36.379Z,2.40
2023-10-20T08:16:22.521Z,2.83
2023-10-20T08:19:08.718Z,2.40
2023-10-20T08:21:54.486Z,5.15
2023-10-20T08:24:40.450Z,3.90
2023-10-20T08:27:25.963Z,2.10
2023-10-20T08:30:12.547Z,1.83
2023-10-20T08:32:58.365Z,2.20
2023-10-20T08:35:44.988Z,2.15
2023-10-20T08:38:33.112Z,7.65
2023-10-20T08:41:24.841Z,6.00
2023-10-20T08:44:12.721Z,10.63
2023-10-20T08:46:59.343Z,8.73
2023-10-20T08:49:49.073Z,4.97
2023-10-20T08:52:35.934Z,6.78
2023-10-20T08:55:23.498Z,8.18
2023-10-20T08:58:09.192Z,5.40
2023-10-20T09:00:58.997Z,2.85
2023-10-20T09:03:56.219Z,5.60
2023-10-20T09:06:41.800Z,4.75
2023-10-20T09:09:27.827Z,6.03
2023-10-20T09:12:14.812Z,4.38
2023-10-20T09:15:00.405Z,5.35
2023-10-20T09:17:53.406Z,7.28
2023-10-20T09:20:40.598Z,4.72
2023-10-20T09:23:28.594Z,3.80
2023-10-20T09:26:17.461Z,3.58
2023-10-20T09:29:09.319Z,3.67
2023-10-20T09:32:01.946Z,3.35
2023-10-20T09:34:48.506Z,3.83
2023-10-20T09:37:39.967Z,2.67
2023-10-20T09:40:26.631Z,4.70
2023-10-20T09:43:31.544Z,3.83
2023-10-20T09:46:32.947Z,4.80
2023-10-20T09:49:28.395Z,4.20
2023-10-20T09:52:16.958Z,2.83
2023-10-20T09:55:03.502Z,2.72
2023-10-20T09:57:50.150Z,4.15
2023-10-20T10:00:36.692Z,3.60
2023-10-20T10:03:31.095Z,3.50
2023-10-20T10:06:17.919Z,4.93
2023-10-20T10:09:07.017Z,6.95
2023-10-20T10:11:56.243Z,5.75
2023-10-20T10:14:42.197Z,8.63
2023-10-20T10:17:28.496Z,6.03
2023-10-20T10:20:26.808Z,5.82
2023-10-20T10:23:14.238Z,8.23
2023-10-20T10:26:00.133Z,7.28
2023-10-20T10:28:50.632Z,5.63
2023-10-20T10:31:40.113Z,6.40
2023-10-20T10:34:26.643Z,4.82
2023-10-20T10:37:13.001Z,7.22
2023-10-20T10:40:15.465Z,7.18
2023-10-20T10:43:01.432Z,5.82
2023-10-20T10:45:54.935Z,9.48
2023-10-20T10:48:41.172Z,6.43
2023-10-20T10:51:26.803Z,6.82
2023-10-20T10:54:12.348Z,4.90
2023-10-20T10:57:04.593Z,5.40
2023-10-20T10:59:51.050Z,6.53
2023-10-20T11:02:37.453Z,5.43
2023-10-20T11:05:26.807Z,6.38
2023-10-20T11:08:14.456Z,8.32
2023-10-20T11:11:01.247Z,5.50
2023-10-20T11:13:47.510Z,8.20
2023-10-20T11:16:37.763Z,7.63
2023-10-20T11:19:23.835Z,9.18
2023-10-20T11:22:19.093Z,6.85
2023-10-20T11:25:06.664Z,9.07
2023-10-20T11:27:56.825Z,10.50
2023-10-20T11:30:46.851Z,7.78
2023-10-20T11:33:33.363Z,10.65
2023-10-20T11:36:19.348Z,9.75
2023-10-20T11:39:07.855Z,9.60
2023-10-20T11:41:55.181Z,8.38
2023-10-20T11:44:40.904Z,7.63
2023-10-20T11:47:27.161Z,8.75
2023-10-20T11:50:16.821Z,11.57
2023-10-20T11:53:02.792Z,14.98
2023-10-20T11:55:48.696Z,9.45
2023-10-20T11:58:34.456Z,9.15
2023-10-20T12:01:20.285Z,9.80
2023-10-20T12:04:07.670Z,8.13
2023-10-20T12:06:53.625Z,8.73
2023-10-20T12:09:39.160Z,8.27
2023-10-20T12:12:30.265Z,6.72
2023-10-20T12:15:16.859Z,5.10
2023-10-20T12:18:03.047Z,6.57
2023-10-20T12:20:48.922Z,7.97
2023-10-20T12:23:35.353Z,7.30
2023-10-20T12:26:20.867Z,8.80
2023-10-20T12:29:06.487Z,6.53
2023-10-20T12:31:52.597Z,9.43
2023-10-20T12:34:38.531Z,7.65
2023-10-20T12:37:24.150Z,7.57
2023-10-20T12:40:10.204Z,11.30
2023-10-20T12:42:55.807Z,5.35
2023-10-20T12:45:41.842Z,5.38
2023-10-20T12:48:27.468Z,5.47
2023-10-20T12:51:14.140Z,5.85
2023-10-20T12:54:00.008Z,12.13
2023-10-20T12:56:46.274Z,7.68
2023-10-20T12:59:32.163Z,9.32
2023-10-20T13:02:18.378Z,12.48
2023-10-20T13:05:06.112Z,16.05
2023-10-20T13:07:52.966Z,7.80
2023-10-20T13:10:38.870Z,9.98
2023-10-20T13:13:25.179Z,7.95
2023-10-20T13:16:12.256Z,10.73
2023-10-20T13:18:58.137Z,5.97
2023-10-20T13:21:44.432Z,7.95
2023-10-20T13:24:30.300Z,6.45
2023-10-20T13:27:15.896Z,8.75
2023-10-20T13:30:02.032Z,7.22
2023-10-20T13:32:47.854Z,11.02
2023-10-20T13:35:38.729Z,13.18
2023-10-20T13:41:16.013Z,8.05
2023-10-20T13:44:02.284Z,6.60
2023-10-20T13:46:47.838Z,5.95
2023-10-20T13:49:33.591Z,6.18
2023-10-20T13:52:22.010Z,4.60
2023-10-20T13:55:08.701Z,4.38
2023-10-20T13:57:54.689Z,5.63
2023-10-20T14:00:40.283Z,5.57
2023-10-20T14:03:27.484Z,4.65
2023-10-20T14:06:17.580Z,9.50
2023-10-20T14:09:04.322Z,4.55
2023-10-20T14:11:51.292Z,4.38
2023-10-20T14:14:37.488Z,7.53
2023-10-20T14:17:23.447Z,6.15
2023-10-20T14:20:11.780Z,4.97
2023-10-20T14:22:57.301Z,8.80
2023-10-20T14:25:44.201Z,6.40
2023-10-20T14:28:33.112Z,12.07
2023-10-20T14:31:18.874Z,4.38
2023-10-20T14:34:07.325Z,10.05
2023-10-20T14:36:52.946Z,9.57
2023-10-20T14:39:40.772Z,5.00
2023-10-20T14:42:26.481Z,7.78
2023-10-20T14:45:12.874Z,4.85
2023-10-20T14:47:59.078Z,7.05
2023-10-20T14:50:47.307Z,8.88
2023-10-20T14:53:32.854Z,5.97
2023-10-20T14:56:18.518Z,6.47
2023-10-20T14:59:04.378Z,6.95
2023-10-20T15:01:50.616Z,3.28
2023-10-20T15:04:39.390Z,6.00
2023-10-20T15:07:25.447Z,3.85
2023-10-20T15:10:11.876Z,5.90
2023-10-20T15:12:57.616Z,4.90
2023-10-20T15:15:43.638Z,4.00
2023-10-20T15:18:29.427Z,5.40
2023-10-20T15:21:15.310Z,5.35
2023-10-20T15:24:05.126Z,9.18
2023-10-20T15:26:51.856Z,5.45
2023-10-20T15:29:38.176Z,3.75
2023-10-20T15:32:26.255Z,4.53
2023-10-20T15:35:13.067Z,4.55
2023-10-20T15:37:58.991Z,5.28
2023-10-20T15:40:53.066Z,7.47
2023-10-20T15:43:39.022Z,4.72
2023-10-20T15:46:24.795Z,7.97
2023-10-20T15:49:10.742Z,6.18
2023-10-20T15:51:56.417Z,11.20
2023-10-20T15:54:41.852Z,9.15
2023-10-20T15:57:27.903Z,6.20
2023-10-20T16:00:14.637Z,4.90
2023-10-20T16:03:03.094Z,7.35
2023-10-20T16:05:48.626Z,7.28
2023-10-20T16:08:34.329Z,4.63
2023-10-20T16:11:20.372Z,5.95
2023-10-20T16:14:06.383Z,8.05
2023-10-20T16:16:55.628Z,12.43
2023-10-20T16:19:44.493Z,7.60
2023-10-20T16:22:30.205Z,11.43
2023-10-20T16:25:15.927Z,10.27
2023-10-20T16:28:01.675Z,6.30
2023-10-20T16:30:47.343Z,10.00
2023-10-20T16:33:36.315Z,9.27
2023-10-20T16:36:22.185Z,5.60
2023-10-20T16:39:07.816Z,9.93
2023-10-20T16:41:54.001Z,6.35
2023-10-20T16:44:42.209Z,9.18
2023-10-20T16:47:28.428Z,5.72
2023-10-20T16:50:14.479Z,6.88
2023-10-20T16:53:00.220Z,8.20
2023-10-20T16:55:46.000Z,5.97
2023-10-20T16:58:31.646Z,6.20
2023-10-20T17:01:19.337Z,7.15
2023-10-20T17:04:06.556Z,4.80
2023-10-20T17:06:52.424Z,6.13
2023-10-20T17:09:38.107Z,7.50
2023-10-20T17:12:23.570Z,10.25
2023-10-20T17:15:09.238Z,9.40
2023-10-20T17:17:55.292Z,7.72
2023-10-20T17:20:44.684Z,5.82
2023-10-20T17:23:32.863Z,5.00
2023-10-20T17:26:19.007Z,8.73
2023-10-20T17:29:08.387Z,5.72
2023-10-20T17:31:54.598Z,10.63
2023-10-20T17:34:40.624Z,5.13
2023-10-20T17:37:28.493Z,6.78
2023-10-20T17:40:14.296Z,8.52
2023-10-20T17:43:04.413Z,8.13
2023-10-20T17:45:49.997Z,7.13
2023-10-20T17:48:36.447Z,5.10
2023-10-20T17:51:22.661Z,7.25
2023-10-20T17:54:08.577Z,8.10
2023-10-20T17:56:56.774Z,7.45
2023-10-20T17:59:43.066Z,10.30
2023-10-20T18:02:31.084Z,9.50
2023-10-20T18:05:16.584Z,9.35
2023-10-20T18:08:07.924Z,8.57
2023-10-20T18:10:54.693Z,8.60
2023-10-20T18:13:42.654Z,5.72
2023-10-20T18:16:30.712Z,6.88
2023-10-20T18:19:16.459Z,8.73
2023-10-20T18:22:02.576Z,6.32
2023-10-20T18:24:48.774Z,7.47
2023-10-20T18:27:34.880Z,5.68
2023-10-20T18:30:21.043Z,6.30
2023-10-20T18:33:07.550Z,6.28
2023-10-20T18:35:54.034Z,5.35
2023-10-20T18:38:40.177Z,4.00
2023-10-20T18:41:31.098Z,3.88
2023-10-20T18:44:19.354Z,3.35
2023-10-20T18:47:07.856Z,5.45
2023-10-20T18:49:53.996Z,6.88
2023-10-20T18:52:42.212Z,7.63
2023-10-20T18:55:29.621Z,6.35
2023-10-20T18:58:15.698Z,6.80
2023-10-20T19:01:07.177Z,6.38
2023-10-20T19:03:55.349Z,3.33
2023-10-20T19:06:41.668Z,6.97
2023-10-20T19:09:27.633Z,4.55
2023-10-20T19:12:13.530Z,4.82
2023-10-20T19:15:00.107Z,3.53
2023-10-20T19:17:46.519Z,4.00
2023-10-20T19:20:32.230Z,4.95
2023-10-20T19:23:20.490Z,6.05
2023-10-20T19:26:15.968Z,5.65
2023-10-20T19:29:04.676Z,8.93
2023-10-20T19:31:50.676Z,6.47
2023-10-20T19:34:36.779Z,2.45
2023-10-20T19:37:23.018Z,3.47
2023-10-20T19:40:09.320Z,4.53
2023-10-20T19:42:57.358Z,4.45
2023-10-20T19:45:43.675Z,8.38
2023-10-20T19:48:34.732Z,5.65
2023-10-20T19:51:20.701Z,4.85
2023-10-20T19:54:09.183Z,4.32
2023-10-20T19:56:55.287Z,4.85
2023-10-20T19:59:41.304Z,4.45
2023-10-20T20:02:29.089Z,4.47
2023-10-20T20:05:17.737Z,3.25
2023-10-20T20:08:06.597Z,3.47
2023-10-20T20:10:52.205Z,3.38
2023-10-20T20:13:38.654Z,3.08
2023-10-20T20:16:27.119Z,4.97
2023-10-20T20:19:15.633Z,5.60
2023-10-20T20:22:01.715Z,2.90
2023-10-20T20:24:49.609Z,4.60
2023-10-20T20:27:36.181Z,3.92
2023-10-20T20:30:22.023Z,3.00
2023-10-20T20:33:08.389Z,3.47
2023-10-20T20:35:57.047Z,3.92
2023-10-20T20:38:43.251Z,3.75
2023-10-20T20:41:28.949Z,2.60
2023-10-20T20:44:16.027Z,3.97
2023-10-20T20:47:02.008Z,3.88
2023-10-20T20:49:48.105Z,2.10
2023-10-20T20:52:33.694Z,3.28
2023-10-20T20:55:21.486Z,3.03
2023-10-20T20:58:07.382Z,2.85
2023-10-20T21:00:53.175Z,2.55
2023-10-20T21:03:44.184Z,3.72
2023-10-20T21:06:30.521Z,2.95
2023-10-20T21:09:16.618Z,2.97
2023-10-20T21:12:02.647Z,3.00
2023-10-20T21:14:48.325Z,2.50
2023-10-20T21:17:35.420Z,2.63
2023-10-20T21:20:24.102Z,2.30
2023-10-20T21:23:11.908Z,3.78
2023-10-20T21:26:01.506Z,4.35
2023-10-20T21:28:47.436Z,3.00
2023-10-20T21:31:33.230Z,2.55
2023-10-20T21:34:19.034Z,4.05
2023-10-20T21:37:04.913Z,3.00
2023-10-20T21:39:50.561Z,4.93
2023-10-20T21:42:37.886Z,3.28
2023-10-20T21:45:23.885Z,4.93
2023-10-20T21:48:10.098Z,4.47
2023-10-20T21:51:05.090Z,4.57
2023-10-20T21:53:50.671Z,4.43
2023-10-20T21:56:36.672Z,3.42
2023-10-20T21:59:23.098Z,6.22
2023-10-20T22:02:10.391Z,3.20
2023-10-20T22:04:58.619Z,3.40
2023-10-20T22:07:44.665Z,3.33
2023-10-20T22:10:30.316Z,2.67
2023-10-20T22:13:18.744Z,4.60
2023-10-20T22:16:05.356Z,5.28
2023-10-20T22:18:51.270Z,4.43
2023-10-20T22:21:37.088Z,5.72
2023-10-20T22:24:25.882Z,4.38
2023-10-20T22:27:14.073Z,2.72
2023-10-20T22:30:00.005Z,7.22
2023-10-20T22:32:45.909Z,3.78
2023-10-20T22:35:35.711Z,2.72
2023-10-20T22:38:23.739Z,3.60
2023-10-20T22:41:09.320Z,4.30
2023-10-20T22:43:57.822Z,5.85
2023-10-20T22:46:45.383Z,5.20
2023-10-20T22:49:33.255Z,3.33
2023-10-20T22:52:20.003Z,2.20
2023-10-20T22:55:07.985Z,2.97
2023-10-20T22:57:53.652Z,2.95
2023-10-20T23:00:40.769Z,2.88
2023-10-20T23:03:40.162Z,3.20
2023-10-20T23:06:29.171Z,2.13
2023-10-20T23:09:19.296Z,3.03
2023-10-20T23:12:09.068Z,2.33
2023-10-20T23:14:56.296Z,2.00
2023-10-20T23:17:46.314Z,1.73
2023-10-20T23:20:38.201Z,3.47
2023-10-20T23:23:25.882Z,3.65
2023-10-20T23:26:21.691Z,1.95
2023-10-20T23:29:10.017Z,6.32
2023-10-20T23:32:01.150Z,4.35
2023-10-20T23:34:51.248Z,1.92
2023-10-20T23:37:40.734Z,2.80
2023-10-20T23:40:30.420Z,2.78
2023-10-20T23:43:18.139Z,3.38
2023-10-20T23:46:08.064Z,6.18
2023-10-20T23:48:56.571Z,3.33
2023-10-20T23:51:48.136Z,3.60
2023-10-20T23:54:39.196Z,4.60
2023-10-20T23:57:27.785Z,5.80
